sensor_id;sensor_type;location;lat;lon;timestamp;P1;durP1;ratioP1;P2;durP2;ratioP2
21181;SDS011;10749;46.296;7.524;2023-06-01T00:00:32;2.60;;;1.77;;
21181;SDS011;10749;46.296;7.524;2023-06-01T00:02:57;2.40;;;1.67;;
21181;SDS011;10749;46.296;7.524;2023-06-01T00:05:23;2.63;;;1.63;;
21181;SDS011;10749;46.296;7.524;2023-06-01T00:07:48;3.40;;;1.80;;
21181;SDS011;10749;46.296;7.524;2023-06-01T00:10:13;3.30;;;2.00;;
21181;SDS011;10749;46.296;7.524;2023-06-01T00:12:38;2.83;;;1.77;;
21181;SDS011;10749;46.296;7.524;2023-06-01T00:15:04;2.70;;;2.00;;
21181;SDS011;10749;46.296;7.524;2023-06-01T00:17:30;1.98;;;1.60;;
21181;SDS011;10749;46.296;7.524;2023-06-01T00:19:55;3.13;;;2.00;;
21181;SDS011;10749;46.296;7.524;2023-06-01T00:22:21;3.28;;;1.83;;
21181;SDS011;10749;46.296;7.524;2023-06-01T00:24:49;3.33;;;2.08;;
21181;SDS011;10749;46.296;7.524;2023-06-01T00:27:15;2.13;;;1.50;;
21181;SDS011;10749;46.296;7.524;2023-06-01T00:29:40;3.15;;;1.90;;
21181;SDS011;10749;46.296;7.524;2023-06-01T00:32:05;2.10;;;1.70;;
21181;SDS011;10749;46.296;7.524;2023-06-01T00:34:31;1.83;;;1.45;;
21181;SDS011;10749;46.296;7.524;2023-06-01T00:36:56;2.55;;;1.65;;
21181;SDS011;10749;46.296;7.524;2023-06-01T00:39:22;3.65;;;1.75;;
21181;SDS011;10749;46.296;7.524;2023-06-01T00:41:47;2.22;;;1.73;;
21181;SDS011;10749;46.296;7.524;2023-06-01T00:44:13;3.78;;;1.80;;
21181;SDS011;10749;46.296;7.524;2023-06-01T00:46:38;2.55;;;1.70;;
21181;SDS011;10749;46.296;7.524;2023-06-01T00:49:04;2.20;;;1.50;;
21181;SDS011;10749;46.296;7.524;2023-06-01T00:51:30;4.78;;;1.73;;
21181;SDS011;10749;46.296;7.524;2023-06-01T00:53:57;2.50;;;1.88;;
21181;SDS011;10749;46.296;7.524;2023-06-01T00:56:23;2.53;;;1.77;;
21181;SDS011;10749;46.296;7.524;2023-06-01T00:58:48;3.10;;;1.60;;
21181;SDS011;10749;46.296;7.524;2023-06-01T01:01:14;4.32;;;1.67;;
21181;SDS011;10749;46.296;7.524;2023-06-01T01:03:47;2.15;;;1.60;;
21181;SDS011;10749;46.296;7.524;2023-06-01T01:06:28;3.58;;;1.52;;
21181;SDS011;10749;46.296;7.524;2023-06-01T01:09:08;1.88;;;1.50;;
21181;SDS011;10749;46.296;7.524;2023-06-01T01:11:40;2.85;;;1.70;;
21181;SDS011;10749;46.296;7.524;2023-06-01T01:14:14;2.33;;;1.88;;
21181;SDS011;10749;46.296;7.524;2023-06-01T01:19:52;3.63;;;1.70;;
21181;SDS011;10749;46.296;7.524;2023-06-01T01:30:40;3.30;;;1.80;;
21181;SDS011;10749;46.296;7.524;2023-06-01T01:33:07;2.47;;;1.85;;
21181;SDS011;10749;46.296;7.524;2023-06-01T01:35:34;2.60;;;1.70;;
21181;SDS011;10749;46.296;7.524;2023-06-01T01:38:00;2.25;;;1.85;;
21181;SDS011;10749;46.296;7.524;2023-06-01T01:40:26;2.20;;;1.83;;
21181;SDS011;10749;46.296;7.524;2023-06-01T01:42:51;2.47;;;1.67;;
21181;SDS011;10749;46.296;7.524;2023-06-01T01:45:18;2.00;;;1.70;;
21181;SDS011;10749;46.296;7.524;2023-06-01T01:47:54;3.08;;;2.10;;
21181;SDS011;10749;46.296;7.524;2023-06-01T01:50:26;3.70;;;1.98;;
21181;SDS011;10749;46.296;7.524;2023-06-01T01:52:55;3.15;;;2.20;;
21181;SDS011;10749;46.296;7.524;2023-06-01T01:55:21;2.13;;;1.75;;
21181;SDS011;10749;46.296;7.524;2023-06-01T01:57:50;4.07;;;2.30;;
21181;SDS011;10749;46.296;7.524;2023-06-01T02:00:17;4.28;;;2.05;;
21181;SDS011;10749;46.296;7.524;2023-06-01T02:02:44;3.25;;;2.08;;
21181;SDS011;10749;46.296;7.524;2023-06-01T02:05:10;2.45;;;1.92;;
21181;SDS011;10749;46.296;7.524;2023-06-01T02:07:36;3.72;;;2.35;;
21181;SDS011;10749;46.296;7.524;2023-06-01T02:10:01;3.67;;;2.08;;
21181;SDS011;10749;46.296;7.524;2023-06-01T02:12:26;4.32;;;2.53;;
21181;SDS011;10749;46.296;7.524;2023-06-01T02:14:52;2.33;;;1.80;;
21181;SDS011;10749;46.296;7.524;2023-06-01T02:17:17;5.60;;;2.45;;
21181;SDS011;10749;46.296;7.524;2023-06-01T02:19:42;2.80;;;1.90;;
21181;SDS011;10749;46.296;7.524;2023-06-01T02:22:09;3.60;;;2.50;;
21181;SDS011;10749;46.296;7.524;2023-06-01T02:24:34;2.80;;;2.30;;
21181;SDS011;10749;46.296;7.524;2023-06-01T02:27:00;2.83;;;1.88;;
21181;SDS011;10749;46.296;7.524;2023-06-01T02:29:25;5.00;;;2.20;;
21181;SDS011;10749;46.296;7.524;2023-06-01T02:31:51;4.93;;;2.00;;
21181;SDS011;10749;46.296;7.524;2023-06-01T02:34:17;3.55;;;2.30;;
21181;SDS011;10749;46.296;7.524;2023-06-01T02:36:43;3.08;;;2.03;;
21181;SDS011;10749;46.296;7.524;2023-06-01T02:39:08;4.43;;;2.22;;
21181;SDS011;10749;46.296;7.524;2023-06-01T02:41:34;5.07;;;2.50;;
21181;SDS011;10749;46.296;7.524;2023-06-01T02:44:00;3.95;;;2.20;;
21181;SDS011;10749;46.296;7.524;2023-06-01T02:46:25;2.83;;;2.10;;
21181;SDS011;10749;46.296;7.524;2023-06-01T02:48:51;3.70;;;2.42;;
21181;SDS011;10749;46.296;7.524;2023-06-01T02:51:17;3.40;;;2.15;;
21181;SDS011;10749;46.296;7.524;2023-06-01T02:53:46;6.85;;;2.10;;
21181;SDS011;10749;46.296;7.524;2023-06-01T02:56:12;3.83;;;1.83;;
21181;SDS011;10749;46.296;7.524;2023-06-01T02:58:38;3.17;;;2.22;;
21181;SDS011;10749;46.296;7.524;2023-06-01T03:01:04;2.53;;;2.10;;
21181;SDS011;10749;46.296;7.524;2023-06-01T03:03:29;3.35;;;2.28;;
21181;SDS011;10749;46.296;7.524;2023-06-01T03:05:54;4.07;;;2.20;;
21181;SDS011;10749;46.296;7.524;2023-06-01T03:08:20;3.03;;;2.30;;
21181;SDS011;10749;46.296;7.524;2023-06-01T03:10:46;2.58;;;2.20;;
21181;SDS011;10749;46.296;7.524;2023-06-01T03:13:12;3.45;;;2.17;;
21181;SDS011;10749;46.296;7.524;2023-06-01T03:15:37;2.63;;;2.33;;
21181;SDS011;10749;46.296;7.524;2023-06-01T03:18:06;4.65;;;2.38;;
21181;SDS011;10749;46.296;7.524;2023-06-01T03:20:32;2.72;;;2.00;;
21181;SDS011;10749;46.296;7.524;2023-06-01T03:22:58;3.25;;;2.45;;
21181;SDS011;10749;46.296;7.524;2023-06-01T03:25:23;3.20;;;2.30;;
21181;SDS011;10749;46.296;7.524;2023-06-01T03:27:50;3.35;;;2.00;;
21181;SDS011;10749;46.296;7.524;2023-06-01T03:30:16;2.92;;;2.00;;
21181;SDS011;10749;46.296;7.524;2023-06-01T03:32:41;3.40;;;2.50;;
21181;SDS011;10749;46.296;7.524;2023-06-01T03:35:08;3.35;;;2.42;;
21181;SDS011;10749;46.296;7.524;2023-06-01T03:37:37;3.67;;;2.47;;
21181;SDS011;10749;46.296;7.524;2023-06-01T03:40:03;2.95;;;2.20;;
21181;SDS011;10749;46.296;7.524;2023-06-01T03:42:35;3.78;;;2.55;;
21181;SDS011;10749;46.296;7.524;2023-06-01T03:45:08;4.30;;;2.88;;
21181;SDS011;10749;46.296;7.524;2023-06-01T03:47:35;4.95;;;2.88;;
21181;SDS011;10749;46.296;7.524;2023-06-01T03:50:00;4.57;;;2.65;;
21181;SDS011;10749;46.296;7.524;2023-06-01T03:52:27;5.07;;;2.53;;
21181;SDS011;10749;46.296;7.524;2023-06-01T03:54:57;6.53;;;2.92;;
21181;SDS011;10749;46.296;7.524;2023-06-01T03:57:23;5.68;;;2.60;;
21181;SDS011;10749;46.296;7.524;2023-06-01T03:59:48;5.57;;;2.60;;
21181;SDS011;10749;46.296;7.524;2023-06-01T04:02:14;5.40;;;2.60;;
21181;SDS011;10749;46.296;7.524;2023-06-01T04:04:40;6.90;;;3.03;;
21181;SDS011;10749;46.296;7.524;2023-06-01T04:07:05;5.45;;;2.75;;
21181;SDS011;10749;46.296;7.524;2023-06-01T04:09:32;5.38;;;2.55;;
21181;SDS011;10749;46.296;7.524;2023-06-01T04:11:57;3.83;;;2.40;;
21181;SDS011;10749;46.296;7.524;2023-06-01T04:14:23;3.28;;;2.58;;
21181;SDS011;10749;46.296;7.524;2023-06-01T04:16:48;4.20;;;2.92;;
21181;SDS011;10749;46.296;7.524;2023-06-01T04:19:14;4.50;;;2.60;;
21181;SDS011;10749;46.296;7.524;2023-06-01T04:21:39;3.35;;;2.47;;
21181;SDS011;10749;46.296;7.524;2023-06-01T04:24:05;3.25;;;2.63;;
21181;SDS011;10749;46.296;7.524;2023-06-01T04:26:30;4.35;;;2.60;;
21181;SDS011;10749;46.296;7.524;2023-06-01T04:29:01;2.90;;;2.38;;
21181;SDS011;10749;46.296;7.524;2023-06-01T04:31:28;5.28;;;2.72;;
21181;SDS011;10749;46.296;7.524;2023-06-01T04:33:53;5.28;;;2.85;;
21181;SDS011;10749;46.296;7.524;2023-06-01T04:36:24;4.95;;;2.65;;
21181;SDS011;10749;46.296;7.524;2023-06-01T04:38:50;3.13;;;2.60;;
21181;SDS011;10749;46.296;7.524;2023-06-01T04:41:22;5.05;;;2.65;;
21181;SDS011;10749;46.296;7.524;2023-06-01T04:43:48;8.40;;;2.80;;
21181;SDS011;10749;46.296;7.524;2023-06-01T04:46:21;9.15;;;3.38;;
21181;SDS011;10749;46.296;7.524;2023-06-01T04:48:48;5.22;;;3.40;;
21181;SDS011;10749;46.296;7.524;2023-06-01T04:51:16;5.63;;;2.88;;
21181;SDS011;10749;46.296;7.524;2023-06-01T04:53:44;6.32;;;3.35;;
21181;SDS011;10749;46.296;7.524;2023-06-01T04:56:15;8.13;;;2.70;;
21181;SDS011;10749;46.296;7.524;2023-06-01T04:58:42;7.43;;;3.40;;
21181;SDS011;10749;46.296;7.524;2023-06-01T05:01:07;8.88;;;3.70;;
21181;SDS011;10749;46.296;7.524;2023-06-01T05:03:32;5.95;;;3.53;;
21181;SDS011;10749;46.296;7.524;2023-06-01T05:05:58;4.53;;;2.80;;
21181;SDS011;10749;46.296;7.524;2023-06-01T05:08:23;6.25;;;3.00;;
21181;SDS011;10749;46.296;7.524;2023-06-01T05:10:48;7.00;;;2.88;;
21181;SDS011;10749;46.296;7.524;2023-06-01T05:13:14;4.47;;;3.25;;
21181;SDS011;10749;46.296;7.524;2023-06-01T05:15:40;4.20;;;2.92;;
21181;SDS011;10749;46.296;7.524;2023-06-01T05:18:05;5.88;;;3.03;;
21181;SDS011;10749;46.296;7.524;2023-06-01T05:20:30;7.50;;;3.00;;
21181;SDS011;10749;46.296;7.524;2023-06-01T05:22:56;6.07;;;3.50;;
21181;SDS011;10749;46.296;7.524;2023-06-01T05:25:21;5.05;;;3.10;;
21181;SDS011;10749;46.296;7.524;2023-06-01T05:27:46;5.70;;;3.30;;
21181;SDS011;10749;46.296;7.524;2023-06-01T05:30:12;10.13;;;3.42;;
21181;SDS011;10749;46.296;7.524;2023-06-01T05:32:37;5.78;;;3.53;;
21181;SDS011;10749;46.296;7.524;2023-06-01T05:35:03;7.90;;;3.58;;
21181;SDS011;10749;46.296;7.524;2023-06-01T05:37:29;7.43;;;3.40;;
21181;SDS011;10749;46.296;7.524;2023-06-01T05:39:54;11.20;;;3.60;;
21181;SDS011;10749;46.296;7.524;2023-06-01T05:42:20;8.32;;;3.58;;
21181;SDS011;10749;46.296;7.524;2023-06-01T05:44:45;4.63;;;3.00;;
21181;SDS011;10749;46.296;7.524;2023-06-01T05:47:10;6.10;;;3.28;;
21181;SDS011;10749;46.296;7.524;2023-06-01T05:49:35;3.92;;;2.90;;
21181;SDS011;10749;46.296;7.524;2023-06-01T05:52:01;7.28;;;2.97;;
21181;SDS011;10749;46.296;7.524;2023-06-01T05:54:26;3.75;;;2.90;;
21181;SDS011;10749;46.296;7.524;2023-06-01T05:56:51;4.22;;;2.80;;
21181;SDS011;10749;46.296;7.524;2023-06-01T05:59:17;5.22;;;3.10;;
21181;SDS011;10749;46.296;7.524;2023-06-01T06:01:42;5.35;;;3.33;;
21181;SDS011;10749;46.296;7.524;2023-06-01T06:04:09;10.15;;;3.40;;
21181;SDS011;10749;46.296;7.524;2023-06-01T06:06:35;5.85;;;2.95;;
21181;SDS011;10749;46.296;7.524;2023-06-01T06:09:01;7.80;;;3.28;;
21181;SDS011;10749;46.296;7.524;2023-06-01T06:11:27;4.93;;;3.05;;
21181;SDS011;10749;46.296;7.524;2023-06-01T06:13:52;5.80;;;2.95;;
21181;SDS011;10749;46.296;7.524;2023-06-01T06:16:18;5.72;;;3.50;;
21181;SDS011;10749;46.296;7.524;2023-06-01T06:18:43;6.32;;;3.63;;
21181;SDS011;10749;46.296;7.524;2023-06-01T06:21:08;7.68;;;3.88;;
21181;SDS011;10749;46.296;7.524;2023-06-01T06:23:35;7.13;;;3.33;;
21181;SDS011;10749;46.296;7.524;2023-06-01T06:26:00;5.63;;;3.05;;
21181;SDS011;10749;46.296;7.524;2023-06-01T06:28:25;7.00;;;3.83;;
21181;SDS011;10749;46.296;7.524;2023-06-01T06:30:51;7.13;;;3.65;;
21181;SDS011;10749;46.296;7.524;2023-06-01T06:33:17;5.85;;;3.75;;
21181;SDS011;10749;46.296;7.524;2023-06-01T06:35:42;8.85;;;3.53;;
21181;SDS011;10749;46.296;7.524;2023-06-01T06:38:07;7.30;;;3.63;;
21181;SDS011;10749;46.296;7.524;2023-06-01T06:40:33;7.13;;;3.78;;
21181;SDS011;10749;46.296;7.524;2023-06-01T06:42:58;5.78;;;3.53;;
21181;SDS011;10749;46.296;7.524;2023-06-01T06:45:23;6.32;;;3.60;;
21181;SDS011;10749;46.296;7.524;2023-06-01T06:47:49;6.40;;;3.70;;
21181;SDS011;10749;46.296;7.524;2023-06-01T06:50:15;7.97;;;3.60;;
21181;SDS011;10749;46.296;7.524;2023-06-01T06:52:41;7.82;;;3.55;;
21181;SDS011;10749;46.296;7.524;2023-06-01T06:55:06;10.60;;;3.58;;
21181;SDS011;10749;46.296;7.524;2023-06-01T06:57:32;6.22;;;3.83;;
21181;SDS011;10749;46.296;7.524;2023-06-01T06:59:59;7.95;;;3.80;;
21181;SDS011;10749;46.296;7.524;2023-06-01T07:02:25;8.10;;;3.67;;
21181;SDS011;10749;46.296;7.524;2023-06-01T07:04:50;10.15;;;3.90;;
21181;SDS011;10749;46.296;7.524;2023-06-01T07:07:16;6.32;;;4.00;;
21181;SDS011;10749;46.296;7.524;2023-06-01T07:09:41;7.32;;;3.63;;
21181;SDS011;10749;46.296;7.524;2023-06-01T07:12:07;9.75;;;3.90;;
21181;SDS011;10749;46.296;7.524;2023-06-01T07:14:33;9.73;;;3.63;;
21181;SDS011;10749;46.296;7.524;2023-06-01T07:16:58;5.22;;;3.30;;
21181;SDS011;10749;46.296;7.524;2023-06-01T07:19:24;7.07;;;3.83;;
21181;SDS011;10749;46.296;7.524;2023-06-01T07:21:49;6.95;;;3.60;;
21181;SDS011;10749;46.296;7.524;2023-06-01T07:24:17;8.50;;;3.45;;
21181;SDS011;10749;46.296;7.524;2023-06-01T07:26:43;6.00;;;3.55;;
21181;SDS011;10749;46.296;7.524;2023-06-01T07:29:08;5.05;;;3.70;;
21181;SDS011;10749;46.296;7.524;2023-06-01T07:31:34;7.28;;;3.40;;
21181;SDS011;10749;46.296;7.524;2023-06-01T07:34:00;7.57;;;4.03;;
21181;SDS011;10749;46.296;7.524;2023-06-01T07:36:25;7.38;;;3.92;;
21181;SDS011;10749;46.296;7.524;2023-06-01T07:38:51;4.80;;;3.53;;
21181;SDS011;10749;46.296;7.524;2023-06-01T07:41:16;8.50;;;3.47;;
21181;SDS011;10749;46.296;7.524;2023-06-01T07:43:42;4.68;;;3.13;;
21181;SDS011;10749;46.296;7.524;2023-06-01T07:46:07;6.10;;;3.72;;
21181;SDS011;10749;46.296;7.524;2023-06-01T07:48:32;6.10;;;3.60;;
21181;SDS011;10749;46.296;7.524;2023-06-01T07:51:02;6.78;;;3.35;;
21181;SDS011;10749;46.296;7.524;2023-06-01T07:53:28;5.25;;;3.63;;
21181;SDS011;10749;46.296;7.524;2023-06-01T07:55:53;6.90;;;3.30;;
21181;SDS011;10749;46.296;7.524;2023-06-01T07:58:18;7.28;;;3.50;;
21181;SDS011;10749;46.296;7.524;2023-06-01T08:00:44;7.30;;;3.55;;
21181;SDS011;10749;46.296;7.524;2023-06-01T08:03:09;7.38;;;3.40;;
21181;SDS011;10749;46.296;7.524;2023-06-01T08:05:35;4.82;;;3.13;;
21181;SDS011;10749;46.296;7.524;2023-06-01T08:08:01;7.72;;;3.35;;
21181;SDS011;10749;46.296;7.524;2023-06-01T08:10:27;10.38;;;3.33;;
21181;SDS011;10749;46.296;7.524;2023-06-01T08:12:52;4.85;;;2.97;;
21181;SDS011;10749;46.296;7.524;2023-06-01T08:15:21;5.10;;;3.45;;
21181;SDS011;10749;46.296;7.524;2023-06-01T08:17:48;4.43;;;3.20;;
21181;SDS011;10749;46.296;7.524;2023-06-01T08:20:14;3.95;;;3.03;;
21181;SDS011;10749;46.296;7.524;2023-06-01T08:22:40;4.78;;;2.58;;
21181;SDS011;10749;46.296;7.524;2023-06-01T08:25:06;3.90;;;3.15;;
21181;SDS011;10749;46.296;7.524;2023-06-01T08:27:32;4.47;;;2.97;;
21181;SDS011;10749;46.296;7.524;2023-06-01T08:29:57;4.53;;;3.47;;
21181;SDS011;10749;46.296;7.524;2023-06-01T08:32:23;5.93;;;2.97;;
21181;SDS011;10749;46.296;7.524;2023-06-01T08:34:49;5.90;;;3.15;;
21181;SDS011;10749;46.296;7.524;2023-06-01T08:37:14;6.00;;;3.45;;
21181;SDS011;10749;46.296;7.524;2023-06-01T08:39:40;4.43;;;3.10;;
21181;SDS011;10749;46.296;7.524;2023-06-01T08:42:07;5.18;;;3.10;;
21181;SDS011;10749;46.296;7.524;2023-06-01T08:44:35;6.28;;;3.22;;
21181;SDS011;10749;46.296;7.524;2023-06-01T08:47:02;3.72;;;2.75;;
21181;SDS011;10749;46.296;7.524;2023-06-01T08:49:29;4.05;;;3.10;;
21181;SDS011;10749;46.296;7.524;2023-06-01T08:51:56;5.13;;;3.30;;
21181;SDS011;10749;46.296;7.524;2023-06-01T08:54:24;5.72;;;2.90;;
21181;SDS011;10749;46.296;7.524;2023-06-01T08:56:50;4.75;;;2.95;;
21181;SDS011;10749;46.296;7.524;2023-06-01T08:59:15;5.00;;;3.10;;
21181;SDS011;10749;46.296;7.524;2023-06-01T09:01:40;3.60;;;2.90;;
21181;SDS011;10749;46.296;7.524;2023-06-01T09:04:07;4.97;;;2.83;;
21181;SDS011;10749;46.296;7.524;2023-06-01T09:06:34;3.40;;;3.05;;
21181;SDS011;10749;46.296;7.524;2023-06-01T09:09:01;4.00;;;3.00;;
21181;SDS011;10749;46.296;7.524;2023-06-01T09:11:27;4.80;;;2.92;;
21181;SDS011;10749;46.296;7.524;2023-06-01T09:13:52;4.07;;;2.92;;
21181;SDS011;10749;46.296;7.524;2023-06-01T09:16:17;4.55;;;2.75;;
21181;SDS011;10749;46.296;7.524;2023-06-01T09:18:52;2.65;;;2.40;;
21181;SDS011;10749;46.296;7.524;2023-06-01T09:21:19;3.42;;;2.85;;
21181;SDS011;10749;46.296;7.524;2023-06-01T09:23:44;3.65;;;2.78;;
21181;SDS011;10749;46.296;7.524;2023-06-01T09:26:11;4.78;;;3.13;;
21181;SDS011;10749;46.296;7.524;2023-06-01T09:28:53;5.32;;;2.80;;
21181;SDS011;10749;46.296;7.524;2023-06-01T09:34:03;5.13;;;2.80;;
21181;SDS011;10749;46.296;7.524;2023-06-01T09:36:28;3.47;;;2.70;;
21181;SDS011;10749;46.296;7.524;2023-06-01T09:39:04;3.85;;;2.60;;
21181;SDS011;10749;46.296;7.524;2023-06-01T09:41:47;5.13;;;2.65;;
21181;SDS011;10749;46.296;7.524;2023-06-01T09:44:29;2.97;;;2.55;;
21181;SDS011;10749;46.296;7.524;2023-06-01T09:47:02;4.10;;;2.85;;
21181;SDS011;10749;46.296;7.524;2023-06-01T09:49:29;3.85;;;2.70;;
21181;SDS011;10749;46.296;7.524;2023-06-01T09:52:08;6.70;;;2.90;;
21181;SDS011;10749;46.296;7.524;2023-06-01T09:57:22;4.53;;;2.72;;
21181;SDS011;10749;46.296;7.524;2023-06-01T09:59:49;4.72;;;2.50;;
21181;SDS011;10749;46.296;7.524;2023-06-01T10:02:15;4.72;;;2.70;;
21181;SDS011;10749;46.296;7.524;2023-06-01T10:04:42;4.82;;;2.88;;
21181;SDS011;10749;46.296;7.524;2023-06-01T10:07:14;5.95;;;3.15;;
21181;SDS011;10749;46.296;7.524;2023-06-01T10:09:41;4.32;;;3.03;;
21181;SDS011;10749;46.296;7.524;2023-06-01T10:12:08;5.45;;;2.90;;
21181;SDS011;10749;46.296;7.524;2023-06-01T10:14:35;4.10;;;2.95;;
21181;SDS011;10749;46.296;7.524;2023-06-01T10:17:05;4.32;;;2.45;;
21181;SDS011;10749;46.296;7.524;2023-06-01T10:19:31;3.20;;;2.50;;
21181;SDS011;10749;46.296;7.524;2023-06-01T10:21:56;3.25;;;2.75;;
21181;SDS011;10749;46.296;7.524;2023-06-01T10:24:23;5.13;;;2.58;;
21181;SDS011;10749;46.296;7.524;2023-06-01T10:27:05;4.47;;;2.38;;
21181;SDS011;10749;46.296;7.524;2023-06-01T10:29:39;3.85;;;2.67;;
21181;SDS011;10749;46.296;7.524;2023-06-01T10:32:14;6.05;;;2.65;;
21181;SDS011;10749;46.296;7.524;2023-06-01T10:35:08;4.43;;;2.60;;
21181;SDS011;10749;46.296;7.524;2023-06-01T10:37:35;3.03;;;2.47;;
21181;SDS011;10749;46.296;7.524;2023-06-01T10:40:09;3.20;;;2.40;;
21181;SDS011;10749;46.296;7.524;2023-06-01T10:42:39;2.80;;;2.42;;
21181;SDS011;10749;46.296;7.524;2023-06-01T10:45:05;5.82;;;2.67;;
21181;SDS011;10749;46.296;7.524;2023-06-01T10:54:57;8.82;;;3.15;;
21181;SDS011;10749;46.296;7.524;2023-06-01T10:57:41;3.85;;;2.53;;
21181;SDS011;10749;46.296;7.524;2023-06-01T11:00:20;4.93;;;2.65;;
21181;SDS011;10749;46.296;7.524;2023-06-01T11:03:02;7.20;;;2.60;;
21181;SDS011;10749;46.296;7.524;2023-06-01T11:13:23;4.20;;;2.40;;
21181;SDS011;10749;46.296;7.524;2023-06-01T11:18:51;3.92;;;2.28;;
21181;SDS011;10749;46.296;7.524;2023-06-01T11:21:24;2.70;;;2.15;;
21181;SDS011;10749;46.296;7.524;2023-06-01T11:23:51;2.83;;;2.20;;
21181;SDS011;10749;46.296;7.524;2023-06-01T11:26:19;3.58;;;2.25;;
21181;SDS011;10749;46.296;7.524;2023-06-01T11:28:46;4.88;;;2.45;;
21181;SDS011;10749;46.296;7.524;2023-06-01T11:31:14;3.65;;;2.22;;
21181;SDS011;10749;46.296;7.524;2023-06-01T11:33:41;3.88;;;2.38;;
21181;SDS011;10749;46.296;7.524;2023-06-01T11:36:15;5.57;;;2.40;;
21181;SDS011;10749;46.296;7.524;2023-06-01T11:38:42;4.22;;;2.50;;
21181;SDS011;10749;46.296;7.524;2023-06-01T11:41:08;3.63;;;2.35;;
21181;SDS011;10749;46.296;7.524;2023-06-01T11:43:34;5.10;;;2.20;;
21181;SDS011;10749;46.296;7.524;2023-06-01T11:46:01;3.92;;;2.17;;
21181;SDS011;10749;46.296;7.524;2023-06-01T11:48:31;3.33;;;2.40;;
21181;SDS011;10749;46.296;7.524;2023-06-01T11:50:57;5.68;;;2.58;;
21181;SDS011;10749;46.296;7.524;2023-06-01T11:53:25;3.95;;;2.30;;
21181;SDS011;10749;46.296;7.524;2023-06-01T11:55:52;4.40;;;2.38;;
21181;SDS011;10749;46.296;7.524;2023-06-01T11:58:28;4.55;;;2.33;;
21181;SDS011;10749;46.296;7.524;2023-06-01T12:00:55;5.35;;;2.20;;
21181;SDS011;10749;46.296;7.524;2023-06-01T12:03:22;3.40;;;2.65;;
21181;SDS011;10749;46.296;7.524;2023-06-01T12:05:52;4.85;;;2.33;;
21181;SDS011;10749;46.296;7.524;2023-06-01T12:08:21;7.68;;;2.30;;
21181;SDS011;10749;46.296;7.524;2023-06-01T12:10:48;5.15;;;2.70;;
21181;SDS011;10749;46.296;7.524;2023-06-01T12:13:15;5.35;;;2.40;;
21181;SDS011;10749;46.296;7.524;2023-06-01T12:15:42;3.60;;;2.38;;
21181;SDS011;10749;46.296;7.524;2023-06-01T12:18:07;5.32;;;2.38;;
21181;SDS011;10749;46.296;7.524;2023-06-01T12:23:11;5.70;;;2.80;;
21181;SDS011;10749;46.296;7.524;2023-06-01T12:25:56;3.90;;;2.50;;
21181;SDS011;10749;46.296;7.524;2023-06-01T12:28:24;4.18;;;2.70;;
21181;SDS011;10749;46.296;7.524;2023-06-01T12:31:12;4.53;;;2.45;;
21181;SDS011;10749;46.296;7.524;2023-06-01T12:33:38;5.32;;;2.60;;
21181;SDS011;10749;46.296;7.524;2023-06-01T12:36:04;4.43;;;2.63;;
21181;SDS011;10749;46.296;7.524;2023-06-01T12:38:37;6.63;;;3.05;;
21181;SDS011;10749;46.296;7.524;2023-06-01T12:41:14;5.75;;;3.05;;
21181;SDS011;10749;46.296;7.524;2023-06-01T12:43:44;5.18;;;2.50;;
21181;SDS011;10749;46.296;7.524;2023-06-01T12:46:17;3.65;;;2.33;;
21181;SDS011;10749;46.296;7.524;2023-06-01T12:48:48;4.68;;;2.28;;
21181;SDS011;10749;46.296;7.524;2023-06-01T12:51:14;3.42;;;2.30;;
21181;SDS011;10749;46.296;7.524;2023-06-01T12:53:41;5.20;;;2.40;;
21181;SDS011;10749;46.296;7.524;2023-06-01T12:56:10;4.63;;;2.40;;
21181;SDS011;10749;46.296;7.524;2023-06-01T12:58:36;2.80;;;2.03;;
21181;SDS011;10749;46.296;7.524;2023-06-01T13:01:02;4.32;;;2.28;;
21181;SDS011;10749;46.296;7.524;2023-06-01T13:03:28;5.07;;;2.50;;
21181;SDS011;10749;46.296;7.524;2023-06-01T13:05:54;4.68;;;2.20;;
21181;SDS011;10749;46.296;7.524;2023-06-01T13:08:20;2.70;;;2.35;;
21181;SDS011;10749;46.296;7.524;2023-06-01T13:10:45;3.78;;;2.30;;
21181;SDS011;10749;46.296;7.524;2023-06-01T13:13:11;5.28;;;2.55;;
21181;SDS011;10749;46.296;7.524;2023-06-01T13:15:44;5.75;;;2.33;;
21181;SDS011;10749;46.296;7.524;2023-06-01T13:18:10;3.38;;;2.33;;
21181;SDS011;10749;46.296;7.524;2023-06-01T13:20:36;3.25;;;2.50;;
21181;SDS011;10749;46.296;7.524;2023-06-01T13:23:04;3.67;;;1.95;;
21181;SDS011;10749;46.296;7.524;2023-06-01T13:25:29;2.85;;;2.30;;
21181;SDS011;10749;46.296;7.524;2023-06-01T13:27:55;4.63;;;2.25;;
21181;SDS011;10749;46.296;7.524;2023-06-01T13:30:21;2.60;;;2.40;;
21181;SDS011;10749;46.296;7.524;2023-06-01T13:32:47;2.78;;;2.30;;
21181;SDS011;10749;46.296;7.524;2023-06-01T13:35:12;2.97;;;2.30;;
21181;SDS011;10749;46.296;7.524;2023-06-01T13:37:38;3.58;;;2.53;;
21181;SDS011;10749;46.296;7.524;2023-06-01T13:40:04;3.20;;;2.45;;
21181;SDS011;10749;46.296;7.524;2023-06-01T13:42:35;3.25;;;2.53;;
21181;SDS011;10749;46.296;7.524;2023-06-01T13:45:01;4.10;;;2.40;;
21181;SDS011;10749;46.296;7.524;2023-06-01T13:47:26;3.65;;;2.60;;
21181;SDS011;10749;46.296;7.524;2023-06-01T13:49:51;5.07;;;2.25;;
21181;SDS011;10749;46.296;7.524;2023-06-01T13:52:17;4.20;;;2.60;;
21181;SDS011;10749;46.296;7.524;2023-06-01T13:54:43;4.57;;;2.42;;
21181;SDS011;10749;46.296;7.524;2023-06-01T13:57:09;3.08;;;2.15;;
21181;SDS011;10749;46.296;7.524;2023-06-01T13:59:34;4.28;;;2.67;;
21181;SDS011;10749;46.296;7.524;2023-06-01T14:02:01;4.63;;;2.78;;
21181;SDS011;10749;46.296;7.524;2023-06-01T14:04:26;2.85;;;2.20;;
21181;SDS011;10749;46.296;7.524;2023-06-01T14:06:52;3.97;;;2.45;;
21181;SDS011;10749;46.296;7.524;2023-06-01T14:09:17;3.72;;;2.47;;
21181;SDS011;10749;46.296;7.524;2023-06-01T14:11:43;6.03;;;2.55;;
21181;SDS011;10749;46.296;7.524;2023-06-01T14:14:09;3.50;;;2.55;;
21181;SDS011;10749;46.296;7.524;2023-06-01T14:16:34;4.38;;;2.42;;
21181;SDS011;10749;46.296;7.524;2023-06-01T14:18:59;3.35;;;2.42;;
21181;SDS011;10749;46.296;7.524;2023-06-01T14:21:25;4.32;;;2.65;;
21181;SDS011;10749;46.296;7.524;2023-06-01T14:23:51;4.47;;;2.40;;
21181;SDS011;10749;46.296;7.524;2023-06-01T14:26:16;15.60;;;3.13;;
21181;SDS011;10749;46.296;7.524;2023-06-01T14:28:41;6.40;;;2.67;;
21181;SDS011;10749;46.296;7.524;2023-06-01T14:31:07;12.00;;;2.88;;
21181;SDS011;10749;46.296;7.524;2023-06-01T14:33:32;4.15;;;2.50;;
21181;SDS011;10749;46.296;7.524;2023-06-01T14:35:57;5.78;;;2.70;;
21181;SDS011;10749;46.296;7.524;2023-06-01T14:38:23;4.32;;;2.55;;
21181;SDS011;10749;46.296;7.524;2023-06-01T14:40:48;7.07;;;2.63;;
21181;SDS011;10749;46.296;7.524;2023-06-01T14:43:13;5.50;;;2.42;;
21181;SDS011;10749;46.296;7.524;2023-06-01T14:45:38;2.75;;;2.25;;
21181;SDS011;10749;46.296;7.524;2023-06-01T14:48:04;8.65;;;2.92;;
21181;SDS011;10749;46.296;7.524;2023-06-01T14:50:29;4.95;;;3.00;;
21181;SDS011;10749;46.296;7.524;2023-06-01T14:52:54;3.45;;;2.47;;
21181;SDS011;10749;46.296;7.524;2023-06-01T14:55:24;4.40;;;2.45;;
21181;SDS011;10749;46.296;7.524;2023-06-01T14:57:50;3.35;;;2.60;;
21181;SDS011;10749;46.296;7.524;2023-06-01T15:00:15;6.38;;;2.83;;
21181;SDS011;10749;46.296;7.524;2023-06-01T15:02:41;2.65;;;2.38;;
21181;SDS011;10749;46.296;7.524;2023-06-01T15:05:07;7.03;;;2.90;;
21181;SDS011;10749;46.296;7.524;2023-06-01T15:07:32;4.45;;;2.40;;
21181;SDS011;10749;46.296;7.524;2023-06-01T15:09:57;3.92;;;2.83;;
21181;SDS011;10749;46.296;7.524;2023-06-01T15:12:23;3.45;;;2.47;;
21181;SDS011;10749;46.296;7.524;2023-06-01T15:14:48;4.88;;;2.65;;
21181;SDS011;10749;46.296;7.524;2023-06-01T15:17:16;2.95;;;2.45;;
21181;SDS011;10749;46.296;7.524;2023-06-01T15:19:41;5.70;;;2.80;;
21181;SDS011;10749;46.296;7.524;2023-06-01T15:22:06;4.15;;;2.83;;
21181;SDS011;10749;46.296;7.524;2023-06-01T15:24:31;5.95;;;2.70;;